Time,TemperatureF,DewpointF,PressureIn,WindDirection,WindDirectionDegrees,WindSpeedMPH,WindSpeedGustMPH,Humidity,HourlyPrecipIn,Conditions,Clouds,dailyrainin,SoftwareType,DateUTC
2013-05-30 00:13:00,70.3,64.0,29.75,ESE,115,2.0,4.0,81,0.00,,,0.00,weatherlink.com 1.10,2013-05-30 05:13:00,
2013-05-30 00:28:00,70.1,64.0,29.75,ESE,117,2.0,4.0,81,0.00,,,0.00,weatherlink.com 1.10,2013-05-30 05:28:00,
2013-05-30 00:43:00,70.2,65.0,29.75,ESE,115,3.0,6.0,82,0.00,,,0.00,weatherlink.com 1.10,2013-05-30 05:43:00,
2013-05-30 00:58:00,70.3,65.0,29.74,ESE,120,4.0,7.0,83,0.00,,,0.00,weatherlink.com 1.10,2013-05-30 05:58:00,
2013-05-30 01:13:00,70.2,66.0,29.74,ESE,112,4.0,7.0,85,0.00,,,0.00,weatherlink.com 1.10,2013-05-30 06:13:00,
2013-05-30 01:29:00,70.2,66.0,29.74,SE,124,2.0,5.0,86,0.00,,,0.00,weatherlink.com 1.10,2013-05-30 06:29:00,
2013-05-30 01:44:00,70.0,66.0,29.74,SE,136,2.0,5.0,87,0.00,,,0.00,weatherlink.com 1.10,2013-05-30 06:44:00,
2013-05-30 01:59:00,70.0,66.0,29.74,SE,127,2.0,4.0,88,0.00,,,0.00,weatherlink.com 1.10,2013-05-30 06:59:00,
2013-05-30 02:14:00,70.0,66.0,29.75,SE,127,2.0,4.0,88,0.00,,,0.00,weatherlink.com 1.10,2013-05-30 07:14:00,
2013-05-30 02:29:00,70.0,67.0,29.75,East,94,4.0,5.0,89,0.00,,,0.00,weatherlink.com 1.10,2013-05-30 07:29:00,
2013-05-30 02:44:00,70.1,67.0,29.74,SE,129,2.0,6.0,89,0.00,,,0.00,weatherlink.com 1.10,2013-05-30 07:44:00,
2013-05-30 02:59:00,70.1,67.0,29.74,ESE,117,2.0,6.0,89,0.00,,,0.00,weatherlink.com 1.10,2013-05-30 07:59:00,
2013-05-30 03:14:00,70.0,67.0,29.75,ESE,116,2.0,5.0,90,0.00,,,0.00,weatherlink.com 1.10,2013-05-30 08:14:00,
2013-05-30 03:29:00,69.8,67.0,29.75,SE,137,1.0,5.0,90,0.00,,,0.00,weatherlink.com 1.10,2013-05-30 08:29:00,
2013-05-30 03:44:00,69.7,67.0,29.75,ESE,120,3.0,5.0,91,0.00,,,0.00,weatherlink.com 1.10,2013-05-30 08:44:00,
2013-05-30 03:59:00,69.8,67.0,29.75,ESE,115,1.0,4.0,91,0.00,,,0.00,weatherlink.com 1.10,2013-05-30 08:59:00,
2013-05-30 04:14:00,69.9,67.0,29.76,East,95,2.0,4.0,91,0.00,,,0.00,weatherlink.com 1.10,2013-05-30 09:14:00,
2013-05-30 04:29:00,69.8,67.0,29.77,SE,131,2.0,11.0,89,0.00,,,0.00,weatherlink.com 1.10,2013-05-30 09:29:00,
2013-05-30 04:44:00,69.7,65.0,29.78,WNW,287,2.0,10.0,85,0.00,,,0.00,weatherlink.com 1.10,2013-05-30 09:44:00,
2013-05-30 04:59:00,67.0,64.0,29.78,SSW,212,2.0,8.0,89,0.02,,,0.02,weatherlink.com 1.10,2013-05-30 09:59:00,
2013-05-30 05:14:00,65.2,63.0,29.77,East,82,2.0,8.0,92,0.04,,,0.04,weatherlink.com 1.10,2013-05-30 10:14:00,
2013-05-30 05:29:00,64.1,62.0,29.75,SE,145,1.0,2.0,93,0.04,,,0.04,weatherlink.com 1.10,2013-05-30 10:29:00,
2013-05-30 05:44:00,63.0,61.0,29.75,ESE,122,0.0,1.0,94,0.04,,,0.04,weatherlink.com 1.10,2013-05-30 10:44:00,
2013-05-30 05:59:00,62.1,60.0,29.75,SE,143,1.0,2.0,94,0.02,,,0.04,weatherlink.com 1.10,2013-05-30 10:59:00,
2013-05-30 06:14:00,61.6,60.0,29.76,ESE,113,0.0,1.0,95,0.00,,,0.04,weatherlink.com 1.10,2013-05-30 11:14:00,
2013-05-30 06:29:00,61.6,61.0,29.77,ESE,109,1.0,2.0,96,0.00,,,0.04,weatherlink.com 1.10,2013-05-30 11:29:00,
2013-05-30 06:44:00,61.8,61.0,29.77,ESE,109,1.0,3.0,96,0.00,,,0.04,weatherlink.com 1.10,2013-05-30 11:44:00,
2013-05-30 06:59:00,62.2,61.0,29.78,ESE,103,0.0,2.0,96,0.00,,,0.04,weatherlink.com 1.10,2013-05-30 11:59:00,
2013-05-30 07:14:00,62.9,62.0,29.77,ESE,117,1.0,2.0,95,0.00,,,0.04,weatherlink.com 1.10,2013-05-30 12:14:00,
2013-05-30 07:29:00,64.2,63.0,29.77,ESE,113,3.0,3.0,94,0.00,,,0.04,weatherlink.com 1.10,2013-05-30 12:29:00,
2013-05-30 07:44:00,66.0,63.0,29.78,South,177,0.0,3.0,91,0.00,,,0.04,weatherlink.com 1.10,2013-05-30 12:44:00,
2013-05-30 07:59:00,67.4,64.0,29.78,ESE,117,1.0,5.0,88,0.00,,,0.04,weatherlink.com 1.10,2013-05-30 12:59:00,
2013-05-30 08:14:00,67.2,63.0,29.78,ESE,110,1.0,4.0,86,0.00,,,0.04,weatherlink.com 1.10,2013-05-30 13:14:00,
2013-05-30 08:29:00,67.0,63.0,29.78,ESE,122,2.0,5.0,87,0.00,,,0.04,weatherlink.com 1.10,2013-05-30 13:29:00,
2013-05-30 08:44:00,66.8,63.0,29.79,NE,50,1.0,7.0,87,0.00,,,0.04,weatherlink.com 1.10,2013-05-30 13:44:00,
2013-05-30 08:59:00,67.6,64.0,29.78,SE,131,4.0,6.0,88,0.00,,,0.04,weatherlink.com 1.10,2013-05-30 13:59:00,
2013-05-30 09:14:00,68.9,65.0,29.77,ESE,120,4.0,9.0,87,0.00,,,0.04,weatherlink.com 1.10,2013-05-30 14:14:00,
2013-05-30 09:29:00,71.6,67.0,29.76,SE,127,5.0,9.0,84,0.00,,,0.04,weatherlink.com 1.10,2013-05-30 14:29:00,
2013-05-30 09:44:00,73.5,68.0,29.76,East,101,2.0,9.0,82,0.00,,,0.04,weatherlink.com 1.10,2013-05-30 14:44:00,
2013-05-30 09:59:00,75.0,68.0,29.75,SE,128,3.0,12.0,78,0.00,,,0.04,weatherlink.com 1.10,2013-05-30 14:59:00,
2013-05-30 10:14:00,75.6,67.0,29.74,SE,135,3.0,10.0,75,0.00,,,0.04,weatherlink.com 1.10,2013-05-30 15:14:00,
2013-05-30 10:29:00,76.3,68.0,29.76,NW,311,2.0,10.0,76,0.00,,,0.04,weatherlink.com 1.10,2013-05-30 15:29:00,
2013-05-30 10:44:00,75.7,67.0,29.76,ESE,103,3.0,10.0,75,0.00,,,0.04,weatherlink.com 1.10,2013-05-30 15:44:00,
2013-05-30 11:00:00,77.4,69.0,29.77,ESE,120,5.0,11.0,74,0.00,,,0.04,weatherlink.com 1.10,2013-05-30 16:00:00,
2013-05-30 11:15:00,78.9,69.0,29.76,ESE,120,5.0,11.0,72,0.00,,,0.04,weatherlink.com 1.10,2013-05-30 16:15:00,
2013-05-30 11:30:00,79.1,69.0,29.76,SE,132,3.0,16.0,70,0.00,,,0.04,weatherlink.com 1.10,2013-05-30 16:30:00,
2013-05-30 11:45:00,79.7,68.0,29.75,SSW,196,3.0,12.0,68,0.00,,,0.04,weatherlink.com 1.10,2013-05-30 16:45:00,
2013-05-30 12:00:00,80.7,68.0,29.75,NE,54,1.0,13.0,66,0.00,,,0.04,weatherlink.com 1.10,2013-05-30 17:00:00,
2013-05-30 12:15:00,80.2,67.0,29.75,West,273,7.0,19.0,65,0.00,,,0.04,weatherlink.com 1.10,2013-05-30 17:15:00,
2013-05-30 12:30:00,79.9,68.0,29.74,North,5,8.0,13.0,68,0.00,,,0.04,weatherlink.com 1.10,2013-05-30 17:30:00,
2013-05-30 12:45:00,78.5,67.0,29.73,ESE,113,1.0,12.0,68,0.00,,,0.04,weatherlink.com 1.10,2013-05-30 17:45:00,
2013-05-30 13:00:00,78.9,68.0,29.72,ESE,121,3.0,9.0,69,0.00,,,0.04,weatherlink.com 1.10,2013-05-30 18:00:00,
2013-05-30 13:15:00,80.1,68.0,29.71,ENE,77,2.0,9.0,67,0.00,,,0.04,weatherlink.com 1.10,2013-05-30 18:15:00,
2013-05-30 13:30:00,82.6,69.0,29.71,SE,145,2.0,9.0,64,0.00,,,0.04,weatherlink.com 1.10,2013-05-30 18:30:00,
2013-05-30 13:45:00,82.1,70.0,29.72,SSW,202,8.0,13.0,66,0.00,,,0.04,weatherlink.com 1.10,2013-05-30 18:45:00,
2013-05-30 14:00:00,80.8,68.0,29.72,ESE,112,5.0,12.0,65,0.00,,,0.04,weatherlink.com 1.10,2013-05-30 19:00:00,
2013-05-30 14:15:00,80.1,68.0,29.73,NNW,348,3.0,14.0,66,0.00,,,0.04,weatherlink.com 1.10,2013-05-30 19:15:00,
2013-05-30 14:30:00,79.8,68.0,29.72,NNE,30,5.0,14.0,68,0.00,,,0.04,weatherlink.com 1.10,2013-05-30 19:30:00,
2013-05-30 14:45:00,78.9,68.0,29.72,ENE,61,7.0,14.0,69,0.00,,,0.04,weatherlink.com 1.10,2013-05-30 19:45:00,
2013-05-30 15:00:00,76.7,67.0,29.71,East,91,3.0,11.0,73,0.00,,,0.04,weatherlink.com 1.10,2013-05-30 20:00:00,
2013-05-30 15:15:00,75.5,68.0,29.71,ESE,110,5.0,8.0,77,0.00,,,0.04,weatherlink.com 1.10,2013-05-30 20:15:00,
2013-05-30 15:30:00,74.3,67.0,29.72,SE,131,3.0,10.0,78,0.00,,,0.04,weatherlink.com 1.10,2013-05-30 20:30:00,
2013-05-30 15:45:00,73.0,65.0,29.72,SE,136,4.0,10.0,75,0.00,,,0.04,weatherlink.com 1.10,2013-05-30 20:45:00,
2013-05-30 16:00:00,73.0,65.0,29.72,East,97,4.0,10.0,75,0.00,,,0.04,weatherlink.com 1.10,2013-05-30 21:00:00,
2013-05-30 16:15:00,72.9,64.0,29.72,SE,136,2.0,8.0,74,0.00,,,0.04,weatherlink.com 1.10,2013-05-30 21:15:00,
2013-05-30 16:30:00,72.5,64.0,29.72,ESE,120,5.0,7.0,74,0.00,,,0.04,weatherlink.com 1.10,2013-05-30 21:30:00,
2013-05-30 16:45:00,72.1,63.0,29.72,SE,126,3.0,7.0,74,0.00,,,0.04,weatherlink.com 1.10,2013-05-30 21:45:00,
2013-05-30 17:00:00,71.9,64.0,29.72,ESE,111,2.0,5.0,76,0.00,,,0.04,weatherlink.com 1.10,2013-05-30 22:00:00,
2013-05-30 17:15:00,71.2,64.0,29.73,SW,225,0.0,2.0,79,0.00,,,0.04,weatherlink.com 1.10,2013-05-30 22:15:00,
2013-05-30 17:30:00,68.4,64.0,29.70,ENE,72,1.0,3.0,86,0.06,,,0.10,weatherlink.com 1.10,2013-05-30 22:30:00,
2013-05-30 17:45:00,66.9,64.0,29.68,ESE,106,2.0,3.0,90,0.06,,,0.10,weatherlink.com 1.10,2013-05-30 22:45:00,
2013-05-30 18:00:00,66.2,64.0,29.71,WSW,252,1.0,5.0,92,0.06,,,0.10,weatherlink.com 1.10,2013-05-30 23:00:00,
2013-05-30 18:15:00,65.7,64.0,29.72,ESE,103,0.0,2.0,93,0.08,,,0.12,weatherlink.com 1.10,2013-05-30 23:15:00,
2013-05-30 18:30:00,64.9,63.0,29.71,ENE,71,0.0,3.0,94,0.18,,,0.28,weatherlink.com 1.10,2013-05-30 23:30:00,
2013-05-30 18:45:00,64.7,63.0,29.75,East,82,4.0,6.0,94,0.18,,,0.28,weatherlink.com 1.10,2013-05-30 23:45:00,
2013-05-30 19:00:00,63.2,62.0,29.77,SSE,148,0.0,7.0,94,0.24,,,0.34,weatherlink.com 1.10,2013-05-31 00:00:00,
2013-05-30 19:15:00,62.6,61.0,29.76,East,88,1.0,2.0,95,0.23,,,0.35,weatherlink.com 1.10,2013-05-31 00:15:00,
2013-05-30 19:30:00,62.6,62.0,29.81,SSW,203,1.0,5.0,96,0.12,,,0.40,weatherlink.com 1.10,2013-05-31 00:30:00,
2013-05-30 19:45:00,61.6,60.0,29.78,SSW,201,1.0,13.0,95,0.36,,,0.64,weatherlink.com 1.10,2013-05-31 00:45:00,
2013-05-30 20:00:00,61.0,60.0,29.76,WSW,245,0.0,3.0,95,0.44,,,0.78,weatherlink.com 1.10,2013-05-31 01:00:00,
2013-05-30 20:15:00,60.5,59.0,29.78,ESE,106,0.0,4.0,96,0.61,,,0.97,weatherlink.com 1.10,2013-05-31 01:15:00,
2013-05-30 20:30:00,60.3,59.0,29.77,East,82,3.0,7.0,96,0.90,,,1.31,weatherlink.com 1.10,2013-05-31 01:30:00,
2013-05-30 20:45:00,60.3,60.0,29.75,SE,128,1.0,3.0,97,0.85,,,1.50,weatherlink.com 1.10,2013-05-31 01:45:00,
2013-05-30 21:00:00,60.1,59.0,29.74,ESE,120,1.0,3.0,97,0.73,,,1.52,weatherlink.com 1.10,2013-05-31 02:00:00,
2013-05-30 21:15:00,60.2,59.0,29.77,ESE,118,5.0,6.0,97,0.55,,,1.53,weatherlink.com 1.10,2013-05-31 02:15:00,
2013-05-30 21:30:00,60.7,60.0,29.75,ESE,117,2.0,4.0,97,0.20,,,1.54,weatherlink.com 1.10,2013-05-31 02:30:00,
2013-05-30 21:45:00,61.2,61.0,29.75,East,98,1.0,3.0,98,0.05,,,1.55,weatherlink.com 1.10,2013-05-31 02:45:00,
2013-05-30 22:00:00,62.6,62.0,29.76,SE,140,0.0,5.0,98,0.03,,,1.55,weatherlink.com 1.10,2013-05-31 03:00:00,
2013-05-30 22:15:00,64.2,64.0,29.77,SE,124,1.0,7.0,98,0.02,,,1.55,weatherlink.com 1.10,2013-05-31 03:15:00,
2013-05-30 22:30:00,65.3,65.0,29.78,SSE,151,2.0,5.0,98,0.01,,,1.55,weatherlink.com 1.10,2013-05-31 03:30:00,
2013-05-30 22:45:00,65.4,65.0,29.80,NW,319,0.0,3.0,98,0.01,,,1.56,weatherlink.com 1.10,2013-05-31 03:45:00,
2013-05-30 23:00:00,65.2,65.0,29.82,ENE,78,1.0,4.0,98,0.08,,,1.63,weatherlink.com 1.10,2013-05-31 04:00:00,
2013-05-30 23:15:00,65.3,65.0,29.80,ESE,108,2.0,2.0,98,0.12,,,1.67,weatherlink.com 1.10,2013-05-31 04:15:00,
2013-05-30 23:30:00,65.4,65.0,29.77,SE,131,2.0,4.0,98,0.14,,,1.69,weatherlink.com 1.10,2013-05-31 04:30:00,
2013-05-30 23:45:00,65.2,65.0,29.76,SE,137,4.0,6.0,98,0.14,,,1.70,weatherlink.com 1.10,2013-05-31 04:45:00,